Klik op de webcam foto voor een grotere versieKlik op de webcam foto voor een grotere versie
Of klik hier voor
de webcam video


Weerstation
Wilsele-Leuven:Website of another weatherstation



Nabijgelegen vliegvelden - METAR rapporten

   
EBBR - Vaartkom-Leuven
Gewijzigd: 21-04-2019 04:20
Helder    Wind: NO 7 km/h
Helder
Wind: Wind: NO 7 km/h
Temperatuur: 10°C
Voelt als: 9°C
Dauwpunt: 4°C
Vochtigheid: 67%
Barometer: 1023 hPa
Zicht: meer dan 10 km
Bewolking: Helder
EBBR 210220Z 05004KT CAVOK 10/04 Q1023 NOSIG
EBAW - Antwerp
Gewijzigd: 21-04-2019 04:50
Helder    Wind: NO 7 km/h
Helder
Wind: Wind: NO 7 km/h
Temperatuur: 11°C
Dauwpunt: 2°C
Vochtigheid: 54%
Barometer: 1023 hPa
Zicht: meer dan 10 km
Bewolking: Helder
EBAW 210250Z AUTO 04004KT CAVOK 11/02 Q1023
EBLG - Liège
Gewijzigd: 21-04-2019 04:50
Helder    Wind: varieert 4 km/h
Helder
Wind: Wind: varieert 4 km/h
Temperatuur: 11°C
Dauwpunt: 3°C
Vochtigheid: 58%
Barometer: 1023 hPa
Zicht: meer dan 10 km
Bewolking: Helder
EBLG 210250Z VRB02KT CAVOK 11/03 Q1023 NOSIG
EBCV - Mons/Bergen
Gewijzigd: 21-04-2019 04:25
Helder    Wind: NNO 7 km/h
Helder
Wind: Wind: NNO 7 km/h
Temperatuur: 11°C
Dauwpunt: 5°C
Vochtigheid: 67%
Barometer: 1023 hPa
Bewolking: Helder
Zicht: meer dan 10 km
Bewolking: Helder
EBCV 210225Z AUTO 02004KT 9999 NCD 11/05 Q1023 BLU
EHBK - Maastricht
Gewijzigd: 21-04-2019 04:25
Helder    Wind: NNO 7 km/h
Helder
Wind: Wind: NNO 7 km/h
Temperatuur: 10°C
Voelt als: 9°C
Dauwpunt: 2°C
Vochtigheid: 58%
Barometer: 1023 hPa
Bewolking: Helder
Zicht: meer dan 10 km
Bewolking: Helder
EHBK 210225Z AUTO 03004KT 9999 NCD 10/02 Q1023
ELLX - Luxemburg
Gewijzigd: 21-04-2019 04:50
Helder    Wind: NO 19 km/h
Helder
Wind: Wind: NO 19 km/h
Temperatuur: 13°C
Dauwpunt: 2°C
Vochtigheid: 47%
Barometer: 1022 hPa
Bewolking: Helder
Zicht: meer dan 10 km
Bewolking: Helder
ELLX 210250Z AUTO 04010KT 9999 NCD 13/02 Q1022 NOSIG
EBOS - Oostende
Gewijzigd: 21-04-2019 04:50
Helder    Wind: Oosten 15 km/h
Helder
Wind: Wind: Oosten 15 km/h
Temperatuur: 11°C
Dauwpunt: 4°C
Vochtigheid: 62%
Barometer: 1023 hPa
Zicht: meer dan 10 km
Bewolking: Helder
EBOS 210250Z 08008KT CAVOK 11/04 Q1023 NOSIG
  

Script ontwikkeld door  Saratoga-weather.org Aangepast voor de template door  Weerstation Leuven

U vindt ons ook hier:

UK Metoffice

WeatherCloud

European Weather Network

Weather Underground

Bernelux Weather Network

AWEKAS

WeatherlinkIP

Citizen Weather Observer Program (CWOP)

HAMweather, WeatherForYou, PWS Weather

Apparatuur in gebruik:

Weer-station
Davis VUE

Weer-programma
Meteobridge

Weer-computer
D-Link DIR-505

Webleverancier
Robohost

Davis VUE

Meteobridge

D-Link DIR-505

Robohost